aviador You're here:

KRBG Decoded Metar

ROSEBURG in OR, USA
Report Time2017-12-11 00:04:00
UTC Time2017-12-11 00:29:50
Flight Rules lifr LIFR
Wind240° at 03 kt
W.Decomp.*RWY 16: 1.4 kt HW 2.6 kt RCW
W.Rank240° ranks 18
Current wind is below 240° avg. (4.7)
Visibility1207 m
Phenomena:Mist
Clouds:Overcast 002 Hf
Ceiling200 ft
Temp01°C (ISA -13)
Dew Point01°C (100% RH)
AAT-1.9°C
QNH1026 hPa
Density Alt-1,427 ft
Elevation505 ft
Report Wrong Elevation
Raw Report
KRBG 110004Z AUTO 24003KT 3/4SM BR OVC002 01/01 A3031 RMK AO2
T00110011=

Extra information for KRBG:More info

Metar Taf Metar & Taf Last 4 Metars F.Rules Stats Wind Profile Meteogram Temp Stats Airport Information Weather charts Add Link Nearby VenuesMetar ALERT Operation Metar Decoded Social comments

AIRNAV info for KRBG